createdAt,value
2022-11-20T00:00:57.365Z,6.82
2022-11-20T00:01:59.199Z,6.97
2022-11-20T00:03:00.945Z,6.10
2022-11-20T00:04:02.821Z,6.63
2022-11-20T00:05:04.849Z,6.53
2022-11-20T00:06:08.641Z,6.93
2022-11-20T00:07:10.473Z,6.80
2022-11-20T00:08:12.478Z,6.68
2022-11-20T00:09:14.192Z,7.03
2022-11-20T00:10:16.519Z,6.45
2022-11-20T00:11:23.113Z,6.40
2022-11-20T00:12:24.892Z,5.70
2022-11-20T00:13:26.614Z,6.20
2022-11-20T00:14:28.429Z,5.63
2022-11-20T00:15:30.152Z,6.00
2022-11-20T00:16:33.795Z,5.85
2022-11-20T00:17:35.561Z,5.97
2022-11-20T00:18:37.899Z,6.53
2022-11-20T00:19:39.650Z,5.60
2022-11-20T00:20:41.448Z,5.75
2022-11-20T00:21:43.178Z,5.43
2022-11-20T00:22:44.935Z,6.10
2022-11-20T00:23:47.001Z,5.72
2022-11-20T00:24:48.720Z,5.63
2022-11-20T00:25:50.446Z,5.97
2022-11-20T00:26:52.181Z,6.20
2022-11-20T00:27:53.894Z,6.15
2022-11-20T00:29:02.020Z,6.68
2022-11-20T00:30:04.750Z,6.43
2022-11-20T00:31:11.948Z,6.53
2022-11-20T00:32:13.651Z,6.28
2022-11-20T00:33:15.337Z,6.85
2022-11-20T00:34:17.114Z,6.80
2022-11-20T00:35:18.837Z,6.78
2022-11-20T00:36:23.278Z,6.47
2022-11-20T00:37:25.013Z,7.43
2022-11-20T00:38:26.718Z,7.07
2022-11-20T00:39:28.478Z,7.10
2022-11-20T00:40:30.239Z,6.30
2022-11-20T00:41:32.002Z,6.60
2022-11-20T00:42:33.919Z,7.47
2022-11-20T00:43:36.289Z,6.80
2022-11-20T00:44:38.043Z,6.63
2022-11-20T00:45:39.740Z,5.93
2022-11-20T00:46:41.477Z,6.83
2022-11-20T00:47:43.195Z,6.75
2022-11-20T00:48:45.750Z,7.15
2022-11-20T00:49:47.550Z,6.47
2022-11-20T00:50:49.270Z,6.13
2022-11-20T00:51:51.100Z,5.93
2022-11-20T00:52:52.872Z,6.22
2022-11-20T00:53:57.412Z,6.30
2022-11-20T00:54:59.153Z,6.60
2022-11-20T00:56:03.771Z,6.57
2022-11-20T00:57:05.664Z,6.20
2022-11-20T00:58:12.994Z,6.38
2022-11-20T00:59:15.985Z,5.70
2022-11-20T01:00:17.862Z,6.25
2022-11-20T01:01:25.919Z,5.82
2022-11-20T01:02:27.691Z,5.32
2022-11-20T01:03:38.857Z,5.00
2022-11-20T01:04:40.564Z,5.38
2022-11-20T01:05:42.302Z,5.90
2022-11-20T01:06:44.104Z,5.57
2022-11-20T01:07:45.860Z,5.97
2022-11-20T01:08:47.996Z,5.75
2022-11-20T01:09:49.733Z,5.70
2022-11-20T01:10:51.446Z,5.55
2022-11-20T01:11:53.182Z,5.15
2022-11-20T01:13:14.866Z,5.72
2022-11-20T01:14:19.634Z,5.75
2022-11-20T01:15:21.434Z,4.95
2022-11-20T01:16:24.658Z,4.93
2022-11-20T01:17:26.382Z,5.50
2022-11-20T01:18:28.097Z,5.27
2022-11-20T01:19:29.845Z,5.90
2022-11-20T01:20:35.016Z,5.40
2022-11-20T01:21:39.234Z,5.13
2022-11-20T01:22:40.974Z,5.88
2022-11-20T01:23:44.492Z,5.43
2022-11-20T01:24:46.200Z,5.55
2022-11-20T01:25:47.917Z,5.28
2022-11-20T01:26:51.764Z,6.05
2022-11-20T01:27:53.563Z,5.80
2022-11-20T01:28:56.799Z,5.40
2022-11-20T01:30:01.289Z,6.22
2022-11-20T01:31:15.791Z,5.72
2022-11-20T01:32:17.840Z,5.40
2022-11-20T01:33:19.557Z,6.18
2022-11-20T01:34:23.292Z,6.07
2022-11-20T01:35:25.036Z,6.28
2022-11-20T01:36:30.290Z,7.07
2022-11-20T01:37:32.032Z,6.00
2022-11-20T01:38:33.967Z,5.97
2022-11-20T01:39:35.705Z,6.47
2022-11-20T01:40:37.662Z,6.57
2022-11-20T01:41:58.366Z,5.90
2022-11-20T01:43:24.292Z,5.22
2022-11-20T01:44:49.752Z,6.47
2022-11-20T01:46:23.639Z,5.95
2022-11-20T01:47:34.429Z,5.68
2022-11-20T01:49:06.552Z,5.50
2022-11-20T01:50:19.185Z,5.63
2022-11-20T01:51:27.067Z,5.68
2022-11-20T01:52:37.468Z,5.88
2022-11-20T01:53:39.751Z,5.70
2022-11-20T01:54:49.355Z,5.90
2022-11-20T01:55:54.042Z,6.13
2022-11-20T01:56:58.476Z,5.63
2022-11-20T01:58:01.673Z,6.35
2022-11-20T01:59:06.969Z,6.57
2022-11-20T02:00:15.412Z,6.30
2022-11-20T02:01:17.292Z,5.43
2022-11-20T02:02:19.104Z,6.57
2022-11-20T02:03:21.513Z,6.20
2022-11-20T02:04:24.033Z,6.20
2022-11-20T02:05:37.997Z,5.97
2022-11-20T02:06:54.656Z,5.38
2022-11-20T02:07:58.756Z,5.20
2022-11-20T02:09:00.524Z,5.95
2022-11-20T02:10:02.677Z,6.95
2022-11-20T02:11:04.468Z,6.45
2022-11-20T02:12:26.767Z,6.93
2022-11-20T02:13:44.088Z,6.72
2022-11-20T02:14:45.855Z,6.35
2022-11-20T02:15:48.202Z,6.45
2022-11-20T02:16:50.857Z,6.65
2022-11-20T02:17:52.790Z,6.18
2022-11-20T02:19:02.182Z,6.75
2022-11-20T02:20:05.371Z,6.22
2022-11-20T02:21:31.357Z,6.25
2022-11-20T02:22:40.385Z,5.67
2022-11-20T02:24:02.198Z,5.57
2022-11-20T02:25:04.891Z,5.10
2022-11-20T02:26:12.052Z,5.40
2022-11-20T02:27:16.021Z,5.65
2022-11-20T02:28:19.284Z,5.80
2022-11-20T02:29:27.650Z,5.55
2022-11-20T02:30:29.420Z,4.80
2022-11-20T02:31:37.588Z,5.57
2022-11-20T02:32:40.762Z,5.15
2022-11-20T02:33:42.478Z,5.40
2022-11-20T02:34:44.212Z,5.65
2022-11-20T02:35:47.948Z,5.20
2022-11-20T02:36:52.189Z,5.88
2022-11-20T02:37:59.442Z,5.30
2022-11-20T02:39:01.254Z,4.97
2022-11-20T02:40:03.066Z,5.63
2022-11-20T02:41:04.875Z,5.63
2022-11-20T02:42:06.810Z,5.97
2022-11-20T02:43:09.435Z,5.65
2022-11-20T02:44:11.160Z,5.63
2022-11-20T02:45:13.124Z,5.40
2022-11-20T02:46:15.511Z,5.32
2022-11-20T02:47:17.259Z,5.82
2022-11-20T02:48:19.047Z,5.90
2022-11-20T02:49:21.089Z,5.68
2022-11-20T02:50:23.129Z,5.28
2022-11-20T02:51:25.258Z,6.80
2022-11-20T02:52:27.213Z,5.78
2022-11-20T02:53:29.079Z,6.40
2022-11-20T02:54:30.823Z,6.17
2022-11-20T02:55:32.735Z,5.50
2022-11-20T02:56:34.645Z,6.88
2022-11-20T02:57:36.414Z,5.45
2022-11-20T02:58:38.536Z,6.78
2022-11-20T02:59:40.336Z,6.60
2022-11-20T03:00:42.089Z,6.75
2022-11-20T03:01:43.996Z,6.85
2022-11-20T03:02:46.136Z,6.43
2022-11-20T03:03:49.541Z,6.17
2022-11-20T03:04:51.288Z,6.57
2022-11-20T03:05:53.040Z,6.22
2022-11-20T03:06:54.774Z,6.03
2022-11-20T03:07:56.523Z,5.38
2022-11-20T03:08:58.256Z,6.53
2022-11-20T03:09:59.987Z,6.13
2022-11-20T03:11:07.161Z,6.85
2022-11-20T03:12:08.992Z,5.70
2022-11-20T03:13:10.788Z,5.45
2022-11-20T03:14:12.536Z,5.40
2022-11-20T03:15:14.492Z,5.57
2022-11-20T03:16:22.473Z,5.80
2022-11-20T03:17:24.176Z,5.50
2022-11-20T03:18:28.469Z,5.63
2022-11-20T03:19:30.392Z,5.47
2022-11-20T03:20:34.833Z,4.82
2022-11-20T03:21:36.812Z,4.32
2022-11-20T03:22:38.565Z,4.53
2022-11-20T03:23:40.480Z,5.78
2022-11-20T03:24:42.206Z,4.40
2022-11-20T03:25:43.955Z,5.40
2022-11-20T03:26:45.749Z,5.32
2022-11-20T03:27:47.521Z,5.38
2022-11-20T03:28:57.557Z,4.93
2022-11-20T03:29:59.244Z,5.20
2022-11-20T03:31:10.903Z,5.15
2022-11-20T03:32:12.608Z,4.78
2022-11-20T03:33:14.331Z,5.20
2022-11-20T03:34:16.128Z,5.18
2022-11-20T03:35:18.840Z,4.63
2022-11-20T03:36:21.560Z,5.55
2022-11-20T03:37:23.250Z,4.95
2022-11-20T03:38:24.965Z,4.63
2022-11-20T03:39:27.432Z,4.82
2022-11-20T03:40:29.208Z,4.07
2022-11-20T03:41:32.580Z,4.82
2022-11-20T03:42:46.274Z,4.80
2022-11-20T03:43:52.549Z,4.55
2022-11-20T03:44:54.252Z,4.47
2022-11-20T03:45:56.369Z,4.68
2022-11-20T03:46:58.070Z,4.70
2022-11-20T03:47:59.845Z,4.30
2022-11-20T03:49:01.840Z,4.55
2022-11-20T03:50:04.221Z,4.68
2022-11-20T03:51:14.777Z,5.05
2022-11-20T03:52:16.568Z,5.00
2022-11-20T03:53:20.802Z,4.88
2022-11-20T03:54:22.618Z,4.78
2022-11-20T03:55:24.340Z,4.17
2022-11-20T03:56:35.724Z,4.53
2022-11-20T03:57:37.544Z,4.25
2022-11-20T03:58:40.623Z,4.68
2022-11-20T03:59:42.333Z,4.88
2022-11-20T04:00:44.226Z,5.20
2022-11-20T04:01:49.432Z,4.20
2022-11-20T04:02:51.481Z,4.63
2022-11-20T04:03:55.028Z,4.50
2022-11-20T04:04:56.761Z,4.65
2022-11-20T04:06:12.572Z,4.20
2022-11-20T04:07:14.397Z,3.33
2022-11-20T04:08:16.228Z,3.42
2022-11-20T04:09:18.018Z,3.78
2022-11-20T04:10:19.915Z,3.67
2022-11-20T04:11:24.618Z,3.10
2022-11-20T04:12:26.353Z,3.53
2022-11-20T04:13:28.086Z,3.88
2022-11-20T04:14:29.852Z,3.67
2022-11-20T04:15:35.697Z,3.40
2022-11-20T04:16:39.997Z,3.50
2022-11-20T04:17:41.819Z,3.50
2022-11-20T04:18:44.349Z,4.20
2022-11-20T04:19:46.165Z,3.72
2022-11-20T04:20:48.791Z,3.25
2022-11-20T04:21:50.514Z,3.80
2022-11-20T04:22:55.556Z,3.50
2022-11-20T04:23:57.832Z,4.10
2022-11-20T04:24:59.571Z,3.72
2022-11-20T04:26:10.332Z,3.85
2022-11-20T04:27:12.051Z,3.53
2022-11-20T04:28:13.948Z,3.63
2022-11-20T04:29:15.770Z,3.90
2022-11-20T04:30:17.713Z,4.05
2022-11-20T04:31:21.984Z,3.92
2022-11-20T04:32:23.737Z,3.30
2022-11-20T04:33:27.054Z,3.38
2022-11-20T04:34:29.918Z,4.05
2022-11-20T04:35:34.619Z,4.07
2022-11-20T04:36:36.346Z,3.83
2022-11-20T04:37:38.061Z,3.70
2022-11-20T04:38:40.488Z,3.40
2022-11-20T04:39:42.364Z,3.63
2022-11-20T04:40:44.118Z,3.70
2022-11-20T04:41:45.862Z,3.70
2022-11-20T04:42:47.624Z,3.75
2022-11-20T04:43:51.131Z,3.80
2022-11-20T04:44:52.933Z,3.40
2022-11-20T04:45:55.765Z,3.20
2022-11-20T04:46:57.472Z,3.42
2022-11-20T04:47:59.207Z,3.60
2022-11-20T04:49:00.941Z,3.50
2022-11-20T04:50:02.841Z,3.10
2022-11-20T04:51:05.383Z,3.38
2022-11-20T04:52:07.140Z,3.40
2022-11-20T04:53:08.860Z,3.58
2022-11-20T04:54:12.147Z,3.50
2022-11-20T04:55:14.413Z,3.47
2022-11-20T04:56:16.709Z,3.47
2022-11-20T04:57:18.458Z,3.53
2022-11-20T04:58:20.224Z,2.90
2022-11-20T04:59:22.430Z,2.65
2022-11-20T05:00:24.513Z,3.63
2022-11-20T05:01:26.562Z,2.90
2022-11-20T05:02:28.353Z,3.45
2022-11-20T05:03:30.468Z,3.30
2022-11-20T05:04:32.179Z,2.78
2022-11-20T05:05:35.900Z,3.00
2022-11-20T05:06:37.713Z,3.55
2022-11-20T05:07:39.462Z,2.78
2022-11-20T05:08:41.421Z,2.97
2022-11-20T05:09:43.197Z,2.78
2022-11-20T05:10:44.932Z,2.83
2022-11-20T05:11:50.405Z,3.17
2022-11-20T05:12:53.467Z,3.35
2022-11-20T05:13:55.769Z,3.08
2022-11-20T05:14:57.649Z,3.35
2022-11-20T05:16:04.439Z,3.20
2022-11-20T05:17:06.418Z,2.90
2022-11-20T05:18:08.362Z,3.22
2022-11-20T05:19:10.277Z,2.83
2022-11-20T05:20:12.455Z,3.17
2022-11-20T05:21:14.756Z,3.10
2022-11-20T05:22:16.480Z,3.67
2022-11-20T05:23:18.207Z,3.17
2022-11-20T05:24:20.096Z,2.60
2022-11-20T05:25:21.805Z,3.30
2022-11-20T05:26:23.796Z,3.20
2022-11-20T05:27:25.500Z,3.17
2022-11-20T05:28:29.146Z,3.00
2022-11-20T05:29:30.898Z,3.00
2022-11-20T05:30:32.805Z,3.10
2022-11-20T05:31:34.573Z,3.35
2022-11-20T05:32:36.283Z,3.08
2022-11-20T05:33:40.622Z,3.15
2022-11-20T05:34:42.347Z,3.35
2022-11-20T05:35:44.377Z,3.17
2022-11-20T05:36:46.119Z,3.20
2022-11-20T05:37:47.813Z,3.08
2022-11-20T05:38:51.027Z,2.67
2022-11-20T05:39:53.252Z,3.40
2022-11-20T05:40:55.003Z,3.30
2022-11-20T05:42:15.134Z,3.13
2022-11-20T05:43:16.908Z,3.05
2022-11-20T05:44:18.857Z,2.92
2022-11-20T05:45:20.564Z,3.00
2022-11-20T05:46:28.247Z,3.80
2022-11-20T05:47:35.372Z,3.22
2022-11-20T05:48:37.877Z,3.10
2022-11-20T05:49:39.611Z,3.30
2022-11-20T05:50:41.322Z,3.50
2022-11-20T05:51:43.055Z,3.70
2022-11-20T05:52:44.957Z,3.58
2022-11-20T05:53:48.778Z,3.65
2022-11-20T05:54:50.835Z,3.17
2022-11-20T05:56:03.591Z,3.00
2022-11-20T05:57:05.301Z,2.95
2022-11-20T05:58:07.070Z,3.05
2022-11-20T05:59:08.953Z,2.95
2022-11-20T06:00:11.457Z,2.90
2022-11-20T06:01:21.742Z,2.90
2022-11-20T06:02:23.539Z,2.67
2022-11-20T06:03:25.325Z,3.00
2022-11-20T06:04:27.087Z,2.70
2022-11-20T06:05:28.839Z,2.78
2022-11-20T06:06:30.569Z,2.80
2022-11-20T06:07:32.487Z,2.75
2022-11-20T06:08:34.367Z,2.55
2022-11-20T06:09:36.108Z,2.50
2022-11-20T06:10:37.809Z,2.72
2022-11-20T06:11:39.631Z,2.60
2022-11-20T06:12:41.388Z,2.75
2022-11-20T06:13:43.735Z,2.47
2022-11-20T06:14:45.497Z,1.90
2022-11-20T06:15:51.549Z,2.38
2022-11-20T06:16:53.308Z,1.90
2022-11-20T06:17:56.003Z,2.40
2022-11-20T06:18:57.722Z,2.55
2022-11-20T06:19:59.484Z,2.33
2022-11-20T06:21:10.198Z,2.40
2022-11-20T06:22:12.103Z,2.65
2022-11-20T06:23:14.485Z,2.10
2022-11-20T06:24:16.654Z,2.08
2022-11-20T06:25:18.415Z,2.20
2022-11-20T06:26:26.362Z,2.53
2022-11-20T06:27:28.341Z,2.20
2022-11-20T06:28:30.187Z,2.20
2022-11-20T06:29:34.104Z,2.45
2022-11-20T06:30:36.400Z,2.25
2022-11-20T06:31:38.784Z,2.43
2022-11-20T06:32:40.559Z,2.17
2022-11-20T06:33:43.511Z,2.17
2022-11-20T06:34:45.269Z,2.55
2022-11-20T06:35:46.982Z,1.80
2022-11-20T06:36:48.687Z,2.42
2022-11-20T06:37:50.551Z,1.95
2022-11-20T06:38:52.403Z,2.05
2022-11-20T06:39:54.119Z,2.33
2022-11-20T06:40:56.214Z,2.83
2022-11-20T06:41:59.249Z,2.17
2022-11-20T06:43:01.127Z,2.28
2022-11-20T06:44:05.678Z,2.42
2022-11-20T06:45:08.273Z,2.90
2022-11-20T06:46:11.859Z,2.80
2022-11-20T06:47:13.561Z,2.70
2022-11-20T06:48:15.306Z,2.70
2022-11-20T06:49:17.098Z,2.53
2022-11-20T06:50:18.869Z,3.03
2022-11-20T06:51:20.698Z,2.30
2022-11-20T06:52:22.627Z,2.90
2022-11-20T06:53:24.957Z,2.60
2022-11-20T06:54:26.770Z,2.55
2022-11-20T06:55:28.509Z,3.53
2022-11-20T06:56:30.240Z,3.45
2022-11-20T06:57:32.046Z,3.63
2022-11-20T06:58:35.405Z,3.33
2022-11-20T06:59:37.115Z,3.53
2022-11-20T07:00:38.968Z,3.20
2022-11-20T07:01:40.825Z,3.20
2022-11-20T07:02:42.545Z,3.37
2022-11-20T07:03:45.204Z,3.47
2022-11-20T07:04:47.077Z,2.78
2022-11-20T07:05:48.855Z,2.67
2022-11-20T07:06:50.547Z,2.90
2022-11-20T07:07:52.256Z,2.70
2022-11-20T07:08:53.997Z,3.20
2022-11-20T07:09:55.756Z,2.63
2022-11-20T07:11:01.798Z,3.13
2022-11-20T07:12:03.610Z,3.03
2022-11-20T07:13:05.797Z,2.87
2022-11-20T07:14:07.507Z,2.90
2022-11-20T07:15:09.585Z,3.38
2022-11-20T07:16:11.302Z,3.28
2022-11-20T07:17:13.302Z,3.65
2022-11-20T07:18:15.049Z,3.42
2022-11-20T07:19:16.745Z,3.53
2022-11-20T07:20:18.869Z,4.10
2022-11-20T07:21:20.582Z,3.60
2022-11-20T07:22:22.676Z,3.67
2022-11-20T07:23:24.599Z,3.60
2022-11-20T07:24:26.346Z,3.50
2022-11-20T07:25:29.525Z,3.72
2022-11-20T07:26:31.254Z,3.55
2022-11-20T07:27:33.270Z,4.43
2022-11-20T07:28:35.869Z,3.88
2022-11-20T07:29:37.570Z,3.63
2022-11-20T07:30:39.386Z,3.67
2022-11-20T07:31:41.164Z,4.13
2022-11-20T07:32:42.907Z,4.22
2022-11-20T07:33:44.670Z,3.30
2022-11-20T07:34:46.627Z,4.13
2022-11-20T07:35:48.426Z,3.97
2022-11-20T07:36:50.220Z,3.90
2022-11-20T07:37:52.164Z,4.10
2022-11-20T07:38:53.895Z,4.43
2022-11-20T07:39:55.615Z,3.90
2022-11-20T07:41:04.469Z,4.63
2022-11-20T07:42:07.363Z,4.15
2022-11-20T07:43:10.348Z,4.60
2022-11-20T07:44:12.522Z,4.30
2022-11-20T07:45:14.280Z,4.22
2022-11-20T07:46:16.058Z,4.05
2022-11-20T07:47:17.796Z,4.28
2022-11-20T07:48:19.543Z,4.18
2022-11-20T07:49:21.786Z,4.47
2022-11-20T07:50:23.831Z,5.00
2022-11-20T07:51:26.876Z,5.40
2022-11-20T07:52:29.585Z,5.05
2022-11-20T07:53:31.335Z,5.50
2022-11-20T07:54:33.105Z,5.77
2022-11-20T07:55:34.861Z,6.82
2022-11-20T07:56:36.614Z,5.75
2022-11-20T07:57:38.355Z,6.68
2022-11-20T07:58:40.064Z,6.95
2022-11-20T07:59:41.845Z,6.38
2022-11-20T08:00:43.722Z,6.60
2022-11-20T08:01:45.516Z,5.43
2022-11-20T08:02:47.237Z,6.03
2022-11-20T08:03:49.014Z,5.50
2022-11-20T08:04:50.864Z,5.30
2022-11-20T08:05:52.850Z,5.20
2022-11-20T08:06:54.608Z,5.10
2022-11-20T08:07:56.341Z,5.03
2022-11-20T08:08:58.151Z,5.53
2022-11-20T08:09:59.969Z,4.80
2022-11-20T08:11:20.457Z,5.25
2022-11-20T08:12:40.920Z,4.03
2022-11-20T08:14:01.286Z,4.80
2022-11-20T08:15:04.539Z,4.75
2022-11-20T08:16:08.934Z,4.67
2022-11-20T08:17:11.111Z,5.15
2022-11-20T08:18:30.458Z,4.30
2022-11-20T08:19:33.799Z,4.43
2022-11-20T08:20:36.266Z,5.15
2022-11-20T08:21:38.699Z,5.35
2022-11-20T08:22:40.470Z,4.45
2022-11-20T08:23:42.184Z,4.93
2022-11-20T08:24:43.916Z,4.65
2022-11-20T08:25:50.971Z,4.53
2022-11-20T08:26:52.980Z,4.17
2022-11-20T08:27:59.241Z,4.68
2022-11-20T08:29:02.250Z,4.43
2022-11-20T08:30:05.510Z,4.72
2022-11-20T08:31:07.236Z,4.63
2022-11-20T08:32:08.962Z,4.47
2022-11-20T08:33:10.835Z,4.60
2022-11-20T08:34:17.569Z,5.03
2022-11-20T08:35:21.693Z,5.00
2022-11-20T08:36:24.559Z,4.78
2022-11-20T08:37:26.282Z,4.87
2022-11-20T08:38:28.049Z,4.93
2022-11-20T08:39:29.977Z,5.43
2022-11-20T08:40:32.142Z,4.70
2022-11-20T08:41:34.186Z,5.50
2022-11-20T08:42:36.022Z,5.18
2022-11-20T08:43:37.782Z,5.20
2022-11-20T08:44:39.565Z,5.28
2022-11-20T08:45:41.295Z,5.13
2022-11-20T08:46:44.656Z,4.57
2022-11-20T08:47:47.028Z,4.60
2022-11-20T08:48:49.037Z,4.80
2022-11-20T08:49:50.764Z,5.65
2022-11-20T08:50:52.478Z,5.80
2022-11-20T08:51:56.159Z,6.05
2022-11-20T08:53:03.805Z,6.63
2022-11-20T08:54:06.191Z,6.40
2022-11-20T08:55:08.897Z,6.00
2022-11-20T08:56:11.272Z,6.05
2022-11-20T08:57:12.967Z,6.18
2022-11-20T08:58:14.691Z,7.17
2022-11-20T08:59:31.308Z,5.97
2022-11-20T09:00:38.326Z,6.07
2022-11-20T09:01:40.503Z,6.28
2022-11-20T09:02:42.266Z,6.45
2022-11-20T09:03:44.009Z,6.72
2022-11-20T09:04:45.912Z,6.28
2022-11-20T09:05:47.731Z,6.45
2022-11-20T09:06:51.954Z,6.75
2022-11-20T09:07:57.483Z,7.53
2022-11-20T09:09:03.478Z,6.80
2022-11-20T09:10:23.516Z,6.32
2022-11-20T09:11:26.084Z,7.25
2022-11-20T09:12:27.804Z,7.10
2022-11-20T09:13:30.290Z,7.47
2022-11-20T09:14:32.084Z,7.97
2022-11-20T09:15:34.752Z,7.50
2022-11-20T09:16:36.595Z,8.32
2022-11-20T09:17:38.368Z,7.43
2022-11-20T09:18:40.124Z,7.63
2022-11-20T09:19:42.494Z,6.77
2022-11-20T09:20:45.209Z,7.82
2022-11-20T09:21:47.040Z,7.68
2022-11-20T09:22:49.267Z,6.70
2022-11-20T09:23:51.006Z,7.10
2022-11-20T09:24:52.710Z,7.68
2022-11-20T09:25:56.700Z,7.72
2022-11-20T09:26:58.432Z,7.82
2022-11-20T09:28:00.700Z,8.05
2022-11-20T09:29:02.454Z,7.22
2022-11-20T09:30:04.891Z,7.70
2022-11-20T09:31:11.066Z,7.30
2022-11-20T09:32:12.879Z,7.90
2022-11-20T09:33:14.619Z,8.23
2022-11-20T09:34:16.568Z,7.55
2022-11-20T09:35:18.900Z,8.70
2022-11-20T09:36:20.723Z,8.25
2022-11-20T09:37:22.457Z,8.82
2022-11-20T09:38:24.221Z,8.05
2022-11-20T09:39:25.978Z,8.18
2022-11-20T09:40:30.495Z,7.67
2022-11-20T09:41:56.488Z,7.45
2022-11-20T09:43:16.139Z,7.35
2022-11-20T09:44:28.533Z,7.93
2022-11-20T09:45:39.698Z,7.00
2022-11-20T09:46:54.455Z,7.20
2022-11-20T09:48:08.229Z,7.50
2022-11-20T09:49:33.930Z,7.95
2022-11-20T09:51:07.422Z,7.40
2022-11-20T09:52:12.098Z,8.48
2022-11-20T09:53:27.585Z,10.40
2022-11-20T09:54:36.709Z,9.05
2022-11-20T09:55:39.575Z,8.07
2022-11-20T09:56:45.896Z,8.00
2022-11-20T09:57:49.200Z,8.18
2022-11-20T09:58:54.859Z,8.25
2022-11-20T10:00:00.382Z,9.20
2022-11-20T10:01:17.456Z,9.95
2022-11-20T10:02:25.333Z,7.95
2022-11-20T10:03:42.876Z,8.15
2022-11-20T10:04:59.912Z,7.70
2022-11-20T10:06:03.728Z,7.75
2022-11-20T10:07:31.834Z,7.90
2022-11-20T10:08:46.082Z,7.65
2022-11-20T10:09:54.958Z,6.93
2022-11-20T10:11:02.571Z,7.82
2022-11-20T10:12:34.104Z,8.10
2022-11-20T10:13:42.008Z,8.27
2022-11-20T10:15:23.605Z,8.32
2022-11-20T10:16:58.209Z,7.72
2022-11-20T10:18:05.175Z,8.07
2022-11-20T10:19:48.445Z,8.45
2022-11-20T10:21:10.701Z,7.65
2022-11-20T10:22:33.545Z,7.32
2022-11-20T10:24:00.327Z,7.95
2022-11-20T10:25:22.064Z,8.43
2022-11-20T10:26:37.908Z,8.43
2022-11-20T10:27:51.887Z,8.63
2022-11-20T10:29:40.590Z,8.35
2022-11-20T10:30:45.014Z,7.95
2022-11-20T10:31:53.380Z,8.43
2022-11-20T10:33:09.883Z,8.50
2022-11-20T10:34:39.650Z,8.02
2022-11-20T10:35:51.150Z,7.55
2022-11-20T10:37:04.553Z,8.57
2022-11-20T10:38:18.166Z,8.10
2022-11-20T10:39:30.024Z,8.32
2022-11-20T10:40:46.805Z,8.50
2022-11-20T10:41:52.858Z,8.50
2022-11-20T10:42:58.262Z,8.07
2022-11-20T10:44:06.353Z,8.47
2022-11-20T10:45:25.909Z,8.77
2022-11-20T10:46:38.544Z,8.48
2022-11-20T10:47:40.292Z,8.70
2022-11-20T10:48:45.295Z,8.38
2022-11-20T10:49:51.708Z,8.73
2022-11-20T10:51:15.335Z,8.25
2022-11-20T10:52:49.121Z,9.02
2022-11-20T10:54:02.717Z,8.02
2022-11-20T10:55:18.315Z,8.02
2022-11-20T10:56:36.654Z,8.50
2022-11-20T10:57:57.113Z,8.10
2022-11-20T10:59:34.573Z,8.45
2022-11-20T11:00:36.562Z,8.70
2022-11-20T11:01:43.434Z,8.20
2022-11-20T11:02:49.859Z,8.02
2022-11-20T11:03:56.142Z,8.60
2022-11-20T11:04:58.387Z,8.40
2022-11-20T11:06:32.023Z,9.07
2022-11-20T11:07:40.301Z,7.75
2022-11-20T11:08:42.400Z,8.37
2022-11-20T11:09:49.953Z,8.35
2022-11-20T11:10:58.341Z,3.80
2022-11-20T11:12:05.755Z,4.20
2022-11-20T11:13:19.841Z,4.05
2022-11-20T11:14:21.573Z,5.20
2022-11-20T11:15:38.010Z,5.72
2022-11-20T11:16:58.646Z,6.00
2022-11-20T11:18:00.426Z,7.80
2022-11-20T11:19:15.766Z,7.88
2022-11-20T11:20:21.092Z,7.57
2022-11-20T11:21:25.540Z,6.10
2022-11-20T11:22:31.109Z,3.47
2022-11-20T11:23:43.776Z,4.22
2022-11-20T11:24:54.356Z,5.28
2022-11-20T11:26:00.606Z,3.55
2022-11-20T11:27:05.594Z,4.65
2022-11-20T11:28:19.771Z,4.65
2022-11-20T11:29:21.737Z,4.68
2022-11-20T11:30:25.210Z,4.57
2022-11-20T11:31:28.279Z,5.83
2022-11-20T11:32:30.038Z,3.15
2022-11-20T11:33:36.851Z,4.00
2022-11-20T11:34:38.699Z,4.25
2022-11-20T11:35:51.113Z,4.10
2022-11-20T11:36:59.520Z,3.13
2022-11-20T11:38:12.772Z,3.55
2022-11-20T11:39:18.459Z,3.25
2022-11-20T11:40:25.419Z,3.17
2022-11-20T11:41:32.921Z,3.38
2022-11-20T11:42:34.838Z,3.50
2022-11-20T11:43:57.077Z,3.20
2022-11-20T11:45:07.126Z,4.13
2022-11-20T11:46:21.123Z,3.50
2022-11-20T11:47:38.312Z,3.70
2022-11-20T11:48:40.306Z,3.58
2022-11-20T11:49:42.315Z,4.68
2022-11-20T11:50:51.021Z,4.55
2022-11-20T11:51:52.704Z,3.80
2022-11-20T11:53:03.130Z,3.38
2022-11-20T11:54:14.871Z,3.77
2022-11-20T11:55:22.540Z,3.53
2022-11-20T11:56:24.897Z,3.58
2022-11-20T11:57:43.773Z,3.83
2022-11-20T11:58:47.700Z,3.97
2022-11-20T12:00:22.135Z,3.97
2022-11-20T12:01:39.908Z,3.75
2022-11-20T12:02:50.282Z,4.07
2022-11-20T12:04:02.760Z,4.53
2022-11-20T12:05:20.671Z,4.22
2022-11-20T12:06:22.734Z,4.53
2022-11-20T12:07:47.621Z,4.05
2022-11-20T12:09:05.165Z,4.35
2022-11-20T12:10:17.895Z,4.57
2022-11-20T12:12:00.325Z,4.32
2022-11-20T12:13:28.440Z,3.58
2022-11-20T12:14:39.039Z,3.38
2022-11-20T12:15:45.894Z,3.85
2022-11-20T12:16:47.920Z,4.13
2022-11-20T12:17:49.927Z,3.72
2022-11-20T12:18:53.595Z,3.70
2022-11-20T12:19:55.343Z,4.10
2022-11-20T12:21:19.121Z,3.72
2022-11-20T12:22:23.968Z,3.17
2022-11-20T12:24:01.164Z,2.80
2022-11-20T12:25:11.078Z,3.03
2022-11-20T12:26:24.321Z,3.30
2022-11-20T12:28:03.704Z,3.50
2022-11-20T12:29:19.974Z,2.53
2022-11-20T12:30:23.201Z,2.78
2022-11-20T12:31:49.877Z,3.33
2022-11-20T12:33:03.260Z,3.53
2022-11-20T12:34:29.736Z,2.95
2022-11-20T12:36:14.776Z,2.90
2022-11-20T12:37:22.581Z,2.63
2022-11-20T12:38:58.099Z,2.88
2022-11-20T12:40:22.809Z,3.08
2022-11-20T12:42:07.961Z,3.05
2022-11-20T12:43:44.761Z,3.10
2022-11-20T12:45:12.422Z,2.55
2022-11-20T12:46:38.901Z,3.90
2022-11-20T12:48:01.754Z,3.63
2022-11-20T12:49:32.774Z,3.38
2022-11-20T12:51:13.971Z,3.00
2022-11-20T12:52:45.040Z,3.58
2022-11-20T12:54:11.683Z,3.10
2022-11-20T12:55:25.481Z,2.85
2022-11-20T12:56:30.311Z,4.38
2022-11-20T12:57:51.952Z,4.07
2022-11-20T12:59:27.801Z,3.70
2022-11-20T13:00:32.656Z,3.67
2022-11-20T13:01:51.341Z,3.83
2022-11-20T13:03:09.094Z,3.38
2022-11-20T13:04:19.905Z,3.60
2022-11-20T13:05:43.602Z,3.47
2022-11-20T13:06:45.953Z,4.00
2022-11-20T13:07:51.550Z,4.18
2022-11-20T13:08:57.421Z,3.85
2022-11-20T13:10:00.370Z,4.00
2022-11-20T13:11:20.102Z,4.10
2022-11-20T13:12:31.752Z,4.00
2022-11-20T13:14:10.997Z,3.70
2022-11-20T13:15:36.429Z,3.58
2022-11-20T13:16:45.683Z,3.70
2022-11-20T13:17:59.286Z,3.35
2022-11-20T13:19:05.889Z,3.83
2022-11-20T13:20:15.363Z,4.03
2022-11-20T13:21:19.792Z,4.00
2022-11-20T13:22:43.471Z,3.80
2022-11-20T13:23:45.299Z,3.80
2022-11-20T13:24:52.872Z,3.40
2022-11-20T13:26:16.798Z,4.20
2022-11-20T13:27:21.718Z,4.22
2022-11-20T13:28:23.429Z,4.28
2022-11-20T13:29:25.168Z,3.92
2022-11-20T13:30:28.756Z,3.78
2022-11-20T13:31:40.737Z,3.30
2022-11-20T13:33:00.799Z,4.07
2022-11-20T13:34:06.457Z,3.70
2022-11-20T13:35:10.197Z,3.50
2022-11-20T13:36:27.063Z,4.20
2022-11-20T13:37:39.396Z,3.65
2022-11-20T13:38:48.448Z,3.65
2022-11-20T13:39:50.195Z,3.65
2022-11-20T13:40:53.252Z,3.40
2022-11-20T13:42:22.883Z,3.88
2022-11-20T13:43:36.374Z,2.75
2022-11-20T13:44:48.196Z,2.78
2022-11-20T13:45:58.047Z,3.40
2022-11-20T13:46:59.893Z,2.80
2022-11-20T13:48:24.748Z,3.50
2022-11-20T13:49:45.241Z,3.13
2022-11-20T13:51:38.217Z,3.40
2022-11-20T13:52:58.815Z,3.15
2022-11-20T13:54:23.244Z,3.58
2022-11-20T13:55:43.065Z,4.00
2022-11-20T13:56:54.723Z,4.03
2022-11-20T13:58:08.511Z,3.90
2022-11-20T13:59:31.261Z,3.83
2022-11-20T14:00:33.115Z,4.13
2022-11-20T14:01:35.821Z,4.13
2022-11-20T14:02:38.073Z,3.95
2022-11-20T14:05:02.985Z,3.58
2022-11-20T14:06:19.621Z,3.88
2022-11-20T14:07:25.150Z,3.70
2022-11-20T14:08:32.342Z,3.90
2022-11-20T14:09:35.359Z,4.03
2022-11-20T14:10:40.169Z,3.58
2022-11-20T14:11:48.894Z,3.53
2022-11-20T14:12:51.837Z,3.67
2022-11-20T14:14:12.197Z,3.28
2022-11-20T14:15:32.207Z,3.28
2022-11-20T14:16:36.772Z,4.03
2022-11-20T14:17:39.183Z,3.63
2022-11-20T14:18:40.914Z,3.65
2022-11-20T14:19:46.278Z,3.55
2022-11-20T14:20:48.414Z,3.72
2022-11-20T14:21:52.620Z,4.30
2022-11-20T14:22:55.564Z,4.03
2022-11-20T14:24:07.424Z,3.67
2022-11-20T14:25:15.290Z,4.30
2022-11-20T14:26:21.283Z,3.80
2022-11-20T14:27:23.124Z,4.10
2022-11-20T14:28:31.294Z,3.83
2022-11-20T14:29:38.382Z,4.00
2022-11-20T14:30:47.738Z,4.20
2022-11-20T14:31:54.653Z,4.57
2022-11-20T14:33:04.575Z,4.40
2022-11-20T14:34:06.421Z,3.60
2022-11-20T14:35:11.375Z,4.40
2022-11-20T14:36:20.812Z,3.53
2022-11-20T14:37:27.494Z,4.43
2022-11-20T14:38:32.333Z,4.45
2022-11-20T14:39:42.012Z,4.38
2022-11-20T14:40:44.351Z,3.95
2022-11-20T14:41:54.838Z,4.15
2022-11-20T14:42:58.324Z,4.10
2022-11-20T14:44:01.313Z,4.15
2022-11-20T14:45:04.054Z,3.10
2022-11-20T14:46:09.226Z,3.90
2022-11-20T14:47:14.018Z,4.40